sensor_id;sensor_type;location;lat;lon;timestamp;P1;durP1;ratioP1;P2;durP2;ratioP2
22166;SDS011;11249;52.468;13.776;2023-07-30T00:01:45;11.38;;;8.88;;
22166;SDS011;11249;52.468;13.776;2023-07-30T00:04:11;9.70;;;7.65;;
22166;SDS011;11249;52.468;13.776;2023-07-30T00:06:38;9.32;;;7.85;;
22166;SDS011;11249;52.468;13.776;2023-07-30T00:09:05;10.00;;;8.20;;
22166;SDS011;11249;52.468;13.776;2023-07-30T00:11:32;10.65;;;8.00;;
22166;SDS011;11249;52.468;13.776;2023-07-30T00:13:59;17.20;;;9.10;;
22166;SDS011;11249;52.468;13.776;2023-07-30T00:16:26;9.43;;;8.52;;
22166;SDS011;11249;52.468;13.776;2023-07-30T00:18:53;9.90;;;7.80;;
22166;SDS011;11249;52.468;13.776;2023-07-30T00:21:20;8.70;;;7.80;;
22166;SDS011;11249;52.468;13.776;2023-07-30T00:23:46;9.27;;;7.65;;
22166;SDS011;11249;52.468;13.776;2023-07-30T00:26:13;11.10;;;8.30;;
22166;SDS011;11249;52.468;13.776;2023-07-30T00:28:40;7.72;;;6.97;;
22166;SDS011;11249;52.468;13.776;2023-07-30T00:31:06;7.68;;;6.95;;
22166;SDS011;11249;52.468;13.776;2023-07-30T00:33:33;11.07;;;7.50;;
22166;SDS011;11249;52.468;13.776;2023-07-30T00:36:00;8.30;;;7.00;;
22166;SDS011;11249;52.468;13.776;2023-07-30T00:38:27;9.55;;;8.02;;
22166;SDS011;11249;52.468;13.776;2023-07-30T00:40:54;11.45;;;7.40;;
22166;SDS011;11249;52.468;13.776;2023-07-30T00:43:21;9.63;;;8.32;;
22166;SDS011;11249;52.468;13.776;2023-07-30T00:45:48;8.25;;;6.53;;
22166;SDS011;11249;52.468;13.776;2023-07-30T00:48:15;12.55;;;7.38;;
22166;SDS011;11249;52.468;13.776;2023-07-30T00:50:42;8.05;;;6.90;;
22166;SDS011;11249;52.468;13.776;2023-07-30T00:53:09;9.48;;;7.55;;
22166;SDS011;11249;52.468;13.776;2023-07-30T00:55:40;9.57;;;7.35;;
22166;SDS011;11249;52.468;13.776;2023-07-30T00:58:06;7.13;;;6.43;;
22166;SDS011;11249;52.468;13.776;2023-07-30T01:00:35;7.85;;;6.72;;
22166;SDS011;11249;52.468;13.776;2023-07-30T01:03:02;8.00;;;6.25;;
22166;SDS011;11249;52.468;13.776;2023-07-30T01:05:29;9.07;;;6.35;;
22166;SDS011;11249;52.468;13.776;2023-07-30T01:07:56;9.45;;;6.72;;
22166;SDS011;11249;52.468;13.776;2023-07-30T01:10:22;8.95;;;6.60;;
22166;SDS011;11249;52.468;13.776;2023-07-30T01:12:49;6.35;;;5.63;;
22166;SDS011;11249;52.468;13.776;2023-07-30T01:15:17;10.38;;;6.70;;
22166;SDS011;11249;52.468;13.776;2023-07-30T01:17:44;9.60;;;7.88;;
22166;SDS011;11249;52.468;13.776;2023-07-30T01:20:12;10.55;;;6.93;;
22166;SDS011;11249;52.468;13.776;2023-07-30T01:22:38;6.60;;;6.00;;
22166;SDS011;11249;52.468;13.776;2023-07-30T01:25:05;6.97;;;6.38;;
22166;SDS011;11249;52.468;13.776;2023-07-30T01:27:33;7.43;;;6.72;;
22166;SDS011;11249;52.468;13.776;2023-07-30T01:30:13;9.80;;;6.13;;
22166;SDS011;11249;52.468;13.776;2023-07-30T01:32:49;10.98;;;7.63;;
22166;SDS011;11249;52.468;13.776;2023-07-30T01:35:22;8.63;;;5.82;;
22166;SDS011;11249;52.468;13.776;2023-07-30T01:37:53;7.68;;;6.93;;
22166;SDS011;11249;52.468;13.776;2023-07-30T01:40:20;8.38;;;6.53;;
22166;SDS011;11249;52.468;13.776;2023-07-30T01:42:50;8.80;;;6.95;;
22166;SDS011;11249;52.468;13.776;2023-07-30T01:45:17;8.48;;;7.07;;
22166;SDS011;11249;52.468;13.776;2023-07-30T01:47:44;7.97;;;6.60;;
22166;SDS011;11249;52.468;13.776;2023-07-30T01:50:11;10.25;;;7.07;;
22166;SDS011;11249;52.468;13.776;2023-07-30T01:52:38;7.15;;;5.88;;
22166;SDS011;11249;52.468;13.776;2023-07-30T01:55:04;7.90;;;7.10;;
22166;SDS011;11249;52.468;13.776;2023-07-30T01:57:32;7.18;;;6.55;;
22166;SDS011;11249;52.468;13.776;2023-07-30T01:59:58;9.25;;;7.38;;
22166;SDS011;11249;52.468;13.776;2023-07-30T02:02:25;11.23;;;7.57;;
22166;SDS011;11249;52.468;13.776;2023-07-30T02:04:52;11.77;;;8.10;;
22166;SDS011;11249;52.468;13.776;2023-07-30T02:07:18;8.75;;;7.85;;
22166;SDS011;11249;52.468;13.776;2023-07-30T02:09:45;6.90;;;6.30;;
22166;SDS011;11249;52.468;13.776;2023-07-30T02:12:12;7.35;;;6.18;;
22166;SDS011;11249;52.468;13.776;2023-07-30T02:14:38;10.30;;;7.05;;
22166;SDS011;11249;52.468;13.776;2023-07-30T02:17:05;8.48;;;7.28;;
22166;SDS011;11249;52.468;13.776;2023-07-30T02:19:32;10.50;;;7.30;;
22166;SDS011;11249;52.468;13.776;2023-07-30T02:21:58;7.38;;;5.75;;
22166;SDS011;11249;52.468;13.776;2023-07-30T02:24:25;7.78;;;6.32;;
22166;SDS011;11249;52.468;13.776;2023-07-30T02:26:52;7.80;;;6.07;;
22166;SDS011;11249;52.468;13.776;2023-07-30T02:29:19;9.30;;;6.57;;
22166;SDS011;11249;52.468;13.776;2023-07-30T02:31:45;9.82;;;7.45;;
22166;SDS011;11249;52.468;13.776;2023-07-30T02:34:12;9.10;;;7.25;;
22166;SDS011;11249;52.468;13.776;2023-07-30T02:36:39;9.85;;;7.13;;
22166;SDS011;11249;52.468;13.776;2023-07-30T02:39:05;8.82;;;7.22;;
22166;SDS011;11249;52.468;13.776;2023-07-30T02:41:32;9.38;;;7.35;;
22166;SDS011;11249;52.468;13.776;2023-07-30T02:43:59;9.82;;;7.88;;
22166;SDS011;11249;52.468;13.776;2023-07-30T02:46:25;12.23;;;7.60;;
22166;SDS011;11249;52.468;13.776;2023-07-30T02:48:52;8.23;;;7.40;;
22166;SDS011;11249;52.468;13.776;2023-07-30T02:51:18;9.00;;;8.10;;
22166;SDS011;11249;52.468;13.776;2023-07-30T02:53:45;8.60;;;7.68;;
22166;SDS011;11249;52.468;13.776;2023-07-30T02:56:12;10.32;;;8.55;;
22166;SDS011;11249;52.468;13.776;2023-07-30T02:58:38;9.80;;;8.73;;
22166;SDS011;11249;52.468;13.776;2023-07-30T03:01:08;12.25;;;8.57;;
22166;SDS011;11249;52.468;13.776;2023-07-30T03:06:02;10.57;;;8.20;;
22166;SDS011;11249;52.468;13.776;2023-07-30T03:08:29;11.32;;;9.18;;
22166;SDS011;11249;52.468;13.776;2023-07-30T03:10:59;9.70;;;8.52;;
22166;SDS011;11249;52.468;13.776;2023-07-30T03:13:26;12.70;;;8.85;;
22166;SDS011;11249;52.468;13.776;2023-07-30T03:15:52;12.07;;;9.70;;
22166;SDS011;11249;52.468;13.776;2023-07-30T03:18:19;15.82;;;9.73;;
22166;SDS011;11249;52.468;13.776;2023-07-30T03:20:46;9.00;;;8.10;;
22166;SDS011;11249;52.468;13.776;2023-07-30T03:23:13;9.20;;;8.30;;
22166;SDS011;11249;52.468;13.776;2023-07-30T03:25:39;10.77;;;9.60;;
22166;SDS011;11249;52.468;13.776;2023-07-30T03:28:06;10.20;;;8.48;;
22166;SDS011;11249;52.468;13.776;2023-07-30T03:30:33;10.75;;;9.65;;
22166;SDS011;11249;52.468;13.776;2023-07-30T03:32:59;10.20;;;9.20;;
22166;SDS011;11249;52.468;13.776;2023-07-30T03:35:26;9.82;;;8.85;;
22166;SDS011;11249;52.468;13.776;2023-07-30T03:37:53;11.55;;;9.30;;
22166;SDS011;11249;52.468;13.776;2023-07-30T03:40:19;11.40;;;10.20;;
22166;SDS011;11249;52.468;13.776;2023-07-30T03:42:46;10.48;;;9.48;;
22166;SDS011;11249;52.468;13.776;2023-07-30T03:45:13;14.95;;;10.10;;
22166;SDS011;11249;52.468;13.776;2023-07-30T03:47:39;11.40;;;9.90;;
22166;SDS011;11249;52.468;13.776;2023-07-30T03:50:06;14.07;;;10.32;;
22166;SDS011;11249;52.468;13.776;2023-07-30T03:52:33;10.57;;;9.48;;
22166;SDS011;11249;52.468;13.776;2023-07-30T03:55:00;17.35;;;10.55;;
22166;SDS011;11249;52.468;13.776;2023-07-30T03:57:27;13.52;;;10.65;;
22166;SDS011;11249;52.468;13.776;2023-07-30T03:59:55;12.95;;;10.95;;
22166;SDS011;11249;52.468;13.776;2023-07-30T04:02:22;11.63;;;10.40;;
22166;SDS011;11249;52.468;13.776;2023-07-30T04:04:49;14.80;;;11.32;;
22166;SDS011;11249;52.468;13.776;2023-07-30T04:07:16;11.60;;;9.82;;
22166;SDS011;11249;52.468;13.776;2023-07-30T04:09:43;12.85;;;10.45;;
22166;SDS011;11249;52.468;13.776;2023-07-30T04:12:09;11.13;;;10.02;;
22166;SDS011;11249;52.468;13.776;2023-07-30T04:14:36;13.13;;;10.30;;
22166;SDS011;11249;52.468;13.776;2023-07-30T04:17:03;13.70;;;10.73;;
22166;SDS011;11249;52.468;13.776;2023-07-30T04:19:30;11.77;;;10.50;;
22166;SDS011;11249;52.468;13.776;2023-07-30T04:21:56;11.38;;;10.27;;
22166;SDS011;11249;52.468;13.776;2023-07-30T04:24:23;11.32;;;10.23;;
22166;SDS011;11249;52.468;13.776;2023-07-30T04:26:50;14.00;;;10.82;;
22166;SDS011;11249;52.468;13.776;2023-07-30T04:29:16;13.20;;;11.35;;
22166;SDS011;11249;52.468;13.776;2023-07-30T04:31:43;11.27;;;10.25;;
22166;SDS011;11249;52.468;13.776;2023-07-30T04:34:10;10.80;;;9.75;;
22166;SDS011;11249;52.468;13.776;2023-07-30T04:36:36;12.23;;;11.02;;
22166;SDS011;11249;52.468;13.776;2023-07-30T04:39:03;11.77;;;10.57;;
22166;SDS011;11249;52.468;13.776;2023-07-30T04:41:30;10.45;;;9.55;;
22166;SDS011;11249;52.468;13.776;2023-07-30T04:43:59;10.82;;;9.82;;
22166;SDS011;11249;52.468;13.776;2023-07-30T04:46:26;12.77;;;10.43;;
22166;SDS011;11249;52.468;13.776;2023-07-30T04:48:53;11.80;;;10.65;;
22166;SDS011;11249;52.468;13.776;2023-07-30T04:51:19;15.63;;;10.70;;
22166;SDS011;11249;52.468;13.776;2023-07-30T04:53:46;11.13;;;10.02;;
22166;SDS011;11249;52.468;13.776;2023-07-30T04:56:13;11.77;;;10.63;;
22166;SDS011;11249;52.468;13.776;2023-07-30T04:58:39;11.82;;;10.05;;
22166;SDS011;11249;52.468;13.776;2023-07-30T05:01:06;11.07;;;9.93;;
22166;SDS011;11249;52.468;13.776;2023-07-30T05:03:33;12.90;;;11.18;;
22166;SDS011;11249;52.468;13.776;2023-07-30T05:06:00;11.27;;;9.80;;
22166;SDS011;11249;52.468;13.776;2023-07-30T05:08:26;11.55;;;10.45;;
22166;SDS011;11249;52.468;13.776;2023-07-30T05:10:53;11.45;;;10.05;;
22166;SDS011;11249;52.468;13.776;2023-07-30T05:13:20;12.18;;;11.07;;
22166;SDS011;11249;52.468;13.776;2023-07-30T05:15:46;11.02;;;9.93;;
22166;SDS011;11249;52.468;13.776;2023-07-30T05:18:13;11.70;;;10.60;;
22166;SDS011;11249;52.468;13.776;2023-07-30T05:20:40;12.05;;;10.45;;
22166;SDS011;11249;52.468;13.776;2023-07-30T05:23:06;10.85;;;9.85;;
22166;SDS011;11249;52.468;13.776;2023-07-30T05:25:33;10.90;;;9.90;;
22166;SDS011;11249;52.468;13.776;2023-07-30T05:28:00;11.55;;;10.45;;
22166;SDS011;11249;52.468;13.776;2023-07-30T05:30:27;12.25;;;9.68;;
22166;SDS011;11249;52.468;13.776;2023-07-30T05:32:53;11.15;;;9.80;;
22166;SDS011;11249;52.468;13.776;2023-07-30T05:35:20;10.27;;;8.65;;
22166;SDS011;11249;52.468;13.776;2023-07-30T05:37:49;8.95;;;8.25;;
22166;SDS011;11249;52.468;13.776;2023-07-30T05:40:15;10.25;;;9.23;;
22166;SDS011;11249;52.468;13.776;2023-07-30T05:42:42;9.95;;;9.05;;
22166;SDS011;11249;52.468;13.776;2023-07-30T05:45:09;10.02;;;9.13;;
22166;SDS011;11249;52.468;13.776;2023-07-30T05:47:36;11.63;;;9.40;;
22166;SDS011;11249;52.468;13.776;2023-07-30T05:50:03;9.60;;;8.60;;
22166;SDS011;11249;52.468;13.776;2023-07-30T05:52:30;9.00;;;8.20;;
22166;SDS011;11249;52.468;13.776;2023-07-30T05:54:57;9.52;;;8.63;;
22166;SDS011;11249;52.468;13.776;2023-07-30T05:57:23;9.27;;;8.38;;
22166;SDS011;11249;52.468;13.776;2023-07-30T05:59:50;10.60;;;8.07;;
22166;SDS011;11249;52.468;13.776;2023-07-30T06:02:17;8.93;;;7.90;;
22166;SDS011;11249;52.468;13.776;2023-07-30T06:04:44;8.30;;;7.40;;
22166;SDS011;11249;52.468;13.776;2023-07-30T06:07:10;8.18;;;7.38;;
22166;SDS011;11249;52.468;13.776;2023-07-30T06:09:37;9.00;;;8.10;;
22166;SDS011;11249;52.468;13.776;2023-07-30T06:12:04;8.15;;;6.93;;
22166;SDS011;11249;52.468;13.776;2023-07-30T06:14:31;7.35;;;6.68;;
22166;SDS011;11249;52.468;13.776;2023-07-30T06:16:57;7.18;;;6.47;;
22166;SDS011;11249;52.468;13.776;2023-07-30T06:19:24;8.48;;;7.63;;
22166;SDS011;11249;52.468;13.776;2023-07-30T06:21:52;8.60;;;7.90;;
22166;SDS011;11249;52.468;13.776;2023-07-30T06:24:19;7.78;;;7.05;;
22166;SDS011;11249;52.468;13.776;2023-07-30T06:26:46;7.22;;;6.53;;
22166;SDS011;11249;52.468;13.776;2023-07-30T06:29:12;7.28;;;6.63;;
22166;SDS011;11249;52.468;13.776;2023-07-30T06:31:39;7.65;;;7.05;;
22166;SDS011;11249;52.468;13.776;2023-07-30T06:34:06;7.28;;;6.57;;
22166;SDS011;11249;52.468;13.776;2023-07-30T06:36:33;6.90;;;6.40;;
22166;SDS011;11249;52.468;13.776;2023-07-30T06:38:59;8.82;;;7.28;;
22166;SDS011;11249;52.468;13.776;2023-07-30T06:41:26;15.00;;;6.75;;
22166;SDS011;11249;52.468;13.776;2023-07-30T06:43:53;8.70;;;7.80;;
22166;SDS011;11249;52.468;13.776;2023-07-30T06:46:20;7.32;;;6.72;;
22166;SDS011;11249;52.468;13.776;2023-07-30T06:48:47;7.13;;;6.45;;
22166;SDS011;11249;52.468;13.776;2023-07-30T06:51:13;8.27;;;6.32;;
22166;SDS011;11249;52.468;13.776;2023-07-30T06:53:40;7.57;;;6.88;;
22166;SDS011;11249;52.468;13.776;2023-07-30T06:56:07;6.90;;;6.20;;
22166;SDS011;11249;52.468;13.776;2023-07-30T06:58:34;7.00;;;6.30;;
22166;SDS011;11249;52.468;13.776;2023-07-30T07:01:03;6.43;;;5.90;;
22166;SDS011;11249;52.468;13.776;2023-07-30T07:03:30;7.00;;;6.30;;
22166;SDS011;11249;52.468;13.776;2023-07-30T07:05:57;5.93;;;5.38;;
22166;SDS011;11249;52.468;13.776;2023-07-30T07:08:24;6.25;;;5.75;;
22166;SDS011;11249;52.468;13.776;2023-07-30T07:10:51;5.68;;;5.18;;
22166;SDS011;11249;52.468;13.776;2023-07-30T07:13:17;10.38;;;5.47;;
22166;SDS011;11249;52.468;13.776;2023-07-30T07:15:44;6.72;;;6.03;;
22166;SDS011;11249;52.468;13.776;2023-07-30T07:18:11;6.60;;;5.13;;
22166;SDS011;11249;52.468;13.776;2023-07-30T07:20:38;5.82;;;5.32;;
22166;SDS011;11249;52.468;13.776;2023-07-30T07:23:05;7.85;;;5.47;;
22166;SDS011;11249;52.468;13.776;2023-07-30T07:25:31;5.93;;;5.43;;
22166;SDS011;11249;52.468;13.776;2023-07-30T07:27:58;5.97;;;4.90;;
22166;SDS011;11249;52.468;13.776;2023-07-30T07:30:25;5.70;;;5.13;;
22166;SDS011;11249;52.468;13.776;2023-07-30T07:32:52;6.57;;;5.13;;
22166;SDS011;11249;52.468;13.776;2023-07-30T07:35:19;5.85;;;4.70;;
22166;SDS011;11249;52.468;13.776;2023-07-30T07:37:46;6.03;;;4.85;;
22166;SDS011;11249;52.468;13.776;2023-07-30T07:40:13;5.68;;;4.75;;
22166;SDS011;11249;52.468;13.776;2023-07-30T07:42:40;5.68;;;5.18;;
22166;SDS011;11249;52.468;13.776;2023-07-30T07:45:07;5.38;;;4.45;;
22166;SDS011;11249;52.468;13.776;2023-07-30T07:47:34;5.22;;;4.72;;
22166;SDS011;11249;52.468;13.776;2023-07-30T07:50:01;5.28;;;4.28;;
22166;SDS011;11249;52.468;13.776;2023-07-30T07:52:27;4.95;;;4.40;;
22166;SDS011;11249;52.468;13.776;2023-07-30T07:54:54;6.22;;;4.43;;
22166;SDS011;11249;52.468;13.776;2023-07-30T07:57:21;5.30;;;4.80;;
22166;SDS011;11249;52.468;13.776;2023-07-30T07:59:47;4.85;;;4.45;;
22166;SDS011;11249;52.468;13.776;2023-07-30T08:02:14;4.50;;;4.10;;
22166;SDS011;11249;52.468;13.776;2023-07-30T08:04:41;4.95;;;3.70;;
22166;SDS011;11249;52.468;13.776;2023-07-30T08:07:08;3.97;;;3.60;;
22166;SDS011;11249;52.468;13.776;2023-07-30T08:09:35;4.25;;;3.28;;
22166;SDS011;11249;52.468;13.776;2023-07-30T08:12:02;4.25;;;3.60;;
22166;SDS011;11249;52.468;13.776;2023-07-30T08:14:29;7.60;;;3.65;;
22166;SDS011;11249;52.468;13.776;2023-07-30T08:16:57;5.82;;;4.00;;
22166;SDS011;11249;52.468;13.776;2023-07-30T08:19:23;3.83;;;3.53;;
22166;SDS011;11249;52.468;13.776;2023-07-30T08:21:50;4.43;;;4.03;;
22166;SDS011;11249;52.468;13.776;2023-07-30T08:24:17;5.80;;;4.35;;
22166;SDS011;11249;52.468;13.776;2023-07-30T08:26:43;4.35;;;3.75;;
22166;SDS011;11249;52.468;13.776;2023-07-30T08:29:10;4.00;;;3.70;;
22166;SDS011;11249;52.468;13.776;2023-07-30T08:31:40;4.15;;;3.75;;
22166;SDS011;11249;52.468;13.776;2023-07-30T08:34:07;5.47;;;3.47;;
22166;SDS011;11249;52.468;13.776;2023-07-30T08:36:34;4.13;;;3.58;;
22166;SDS011;11249;52.468;13.776;2023-07-30T08:39:01;4.80;;;3.30;;
22166;SDS011;11249;52.468;13.776;2023-07-30T08:41:30;4.90;;;4.10;;
22166;SDS011;11249;52.468;13.776;2023-07-30T08:43:57;4.65;;;3.72;;
22166;SDS011;11249;52.468;13.776;2023-07-30T08:46:24;3.95;;;3.55;;
22166;SDS011;11249;52.468;13.776;2023-07-30T08:48:51;7.78;;;3.65;;
22166;SDS011;11249;52.468;13.776;2023-07-30T08:51:17;10.55;;;4.07;;
22166;SDS011;11249;52.468;13.776;2023-07-30T08:53:45;4.10;;;3.22;;
22166;SDS011;11249;52.468;13.776;2023-07-30T08:56:13;4.05;;;3.60;;
22166;SDS011;11249;52.468;13.776;2023-07-30T08:58:40;4.10;;;3.40;;
22166;SDS011;11249;52.468;13.776;2023-07-30T09:01:11;4.00;;;3.22;;
22166;SDS011;11249;52.468;13.776;2023-07-30T09:03:39;3.30;;;3.00;;
22166;SDS011;11249;52.468;13.776;2023-07-30T09:06:07;4.35;;;3.30;;
22166;SDS011;11249;52.468;13.776;2023-07-30T09:08:34;5.47;;;3.10;;
22166;SDS011;11249;52.468;13.776;2023-07-30T09:11:07;3.20;;;2.90;;
22166;SDS011;11249;52.468;13.776;2023-07-30T09:13:38;5.28;;;2.88;;
22166;SDS011;11249;52.468;13.776;2023-07-30T09:16:12;3.63;;;3.00;;
22166;SDS011;11249;52.468;13.776;2023-07-30T09:18:46;4.95;;;3.17;;
22166;SDS011;11249;52.468;13.776;2023-07-30T09:21:16;3.30;;;2.90;;
22166;SDS011;11249;52.468;13.776;2023-07-30T09:23:43;3.55;;;3.22;;
22166;SDS011;11249;52.468;13.776;2023-07-30T09:26:11;4.13;;;2.85;;
22166;SDS011;11249;52.468;13.776;2023-07-30T09:28:39;4.88;;;3.08;;
22166;SDS011;11249;52.468;13.776;2023-07-30T09:31:07;3.08;;;2.78;;
22166;SDS011;11249;52.468;13.776;2023-07-30T09:33:48;5.75;;;2.92;;
22166;SDS011;11249;52.468;13.776;2023-07-30T09:36:16;2.45;;;2.25;;
22166;SDS011;11249;52.468;13.776;2023-07-30T09:38:45;2.83;;;2.63;;
22166;SDS011;11249;52.468;13.776;2023-07-30T09:41:12;3.08;;;2.60;;
22166;SDS011;11249;52.468;13.776;2023-07-30T09:43:41;3.00;;;2.72;;
22166;SDS011;11249;52.468;13.776;2023-07-30T09:46:07;2.80;;;2.58;;
22166;SDS011;11249;52.468;13.776;2023-07-30T09:48:35;3.75;;;2.50;;
22166;SDS011;11249;52.468;13.776;2023-07-30T09:51:02;3.15;;;2.53;;
22166;SDS011;11249;52.468;13.776;2023-07-30T09:53:30;3.08;;;2.50;;
22166;SDS011;11249;52.468;13.776;2023-07-30T09:56:04;3.40;;;2.45;;
22166;SDS011;11249;52.468;13.776;2023-07-30T09:58:33;3.38;;;2.63;;
22166;SDS011;11249;52.468;13.776;2023-07-30T10:01:02;3.30;;;2.40;;
22166;SDS011;11249;52.468;13.776;2023-07-30T10:03:30;3.08;;;2.53;;
22166;SDS011;11249;52.468;13.776;2023-07-30T10:06:02;3.20;;;2.75;;
22166;SDS011;11249;52.468;13.776;2023-07-30T10:08:31;4.75;;;2.30;;
22166;SDS011;11249;52.468;13.776;2023-07-30T10:11:02;5.05;;;2.75;;
22166;SDS011;11249;52.468;13.776;2023-07-30T10:13:31;2.90;;;2.42;;
22166;SDS011;11249;52.468;13.776;2023-07-30T10:15:58;4.55;;;2.67;;
22166;SDS011;11249;52.468;13.776;2023-07-30T10:18:32;5.30;;;3.05;;
22166;SDS011;11249;52.468;13.776;2023-07-30T10:21:10;3.80;;;2.53;;
22166;SDS011;11249;52.468;13.776;2023-07-30T10:24:01;4.53;;;2.50;;
22166;SDS011;11249;52.468;13.776;2023-07-30T10:26:32;4.47;;;2.63;;
22166;SDS011;11249;52.468;13.776;2023-07-30T10:29:20;5.13;;;2.30;;
22166;SDS011;11249;52.468;13.776;2023-07-30T10:31:53;3.22;;;2.55;;
22166;SDS011;11249;52.468;13.776;2023-07-30T10:34:22;3.33;;;2.25;;
22166;SDS011;11249;52.468;13.776;2023-07-30T10:36:52;3.95;;;2.63;;
22166;SDS011;11249;52.468;13.776;2023-07-30T10:39:21;3.92;;;2.55;;
22166;SDS011;11249;52.468;13.776;2023-07-30T10:41:56;3.13;;;2.42;;
22166;SDS011;11249;52.468;13.776;2023-07-30T10:44:30;2.72;;;2.20;;
22166;SDS011;11249;52.468;13.776;2023-07-30T10:46:58;2.65;;;2.10;;
22166;SDS011;11249;52.468;13.776;2023-07-30T10:49:26;3.10;;;2.28;;
22166;SDS011;11249;52.468;13.776;2023-07-30T10:51:54;2.75;;;2.20;;
22166;SDS011;11249;52.468;13.776;2023-07-30T10:56:50;3.15;;;2.25;;
22166;SDS011;11249;52.468;13.776;2023-07-30T10:59:17;4.18;;;2.28;;
22166;SDS011;11249;52.468;13.776;2023-07-30T11:01:45;3.97;;;2.38;;
22166;SDS011;11249;52.468;13.776;2023-07-30T11:04:16;3.60;;;2.17;;
22166;SDS011;11249;52.468;13.776;2023-07-30T11:06:45;2.70;;;2.30;;
22166;SDS011;11249;52.468;13.776;2023-07-30T11:09:23;4.10;;;2.45;;
22166;SDS011;11249;52.468;13.776;2023-07-30T11:11:52;2.92;;;1.88;;
22166;SDS011;11249;52.468;13.776;2023-07-30T11:14:21;4.45;;;2.28;;
22166;SDS011;11249;52.468;13.776;2023-07-30T11:16:49;4.10;;;1.70;;
22166;SDS011;11249;52.468;13.776;2023-07-30T11:19:18;4.25;;;2.10;;
22166;SDS011;11249;52.468;13.776;2023-07-30T11:21:46;3.90;;;1.98;;
22166;SDS011;11249;52.468;13.776;2023-07-30T11:24:16;5.13;;;2.22;;
22166;SDS011;11249;52.468;13.776;2023-07-30T11:26:43;4.97;;;1.88;;
22166;SDS011;11249;52.468;13.776;2023-07-30T11:29:16;4.45;;;2.15;;
22166;SDS011;11249;52.468;13.776;2023-07-30T11:31:47;4.00;;;2.20;;
22166;SDS011;11249;52.468;13.776;2023-07-30T11:34:14;4.32;;;2.10;;
22166;SDS011;11249;52.468;13.776;2023-07-30T11:36:41;3.97;;;2.25;;
22166;SDS011;11249;52.468;13.776;2023-07-30T11:39:09;2.60;;;1.77;;
22166;SDS011;11249;52.468;13.776;2023-07-30T11:41:36;4.68;;;1.90;;
22166;SDS011;11249;52.468;13.776;2023-07-30T11:44:04;3.03;;;2.08;;
22166;SDS011;11249;52.468;13.776;2023-07-30T11:46:31;3.13;;;1.95;;
22166;SDS011;11249;52.468;13.776;2023-07-30T11:49:15;3.72;;;2.15;;
22166;SDS011;11249;52.468;13.776;2023-07-30T11:51:47;3.38;;;1.92;;
22166;SDS011;11249;52.468;13.776;2023-07-30T11:54:21;2.97;;;2.33;;
22166;SDS011;11249;52.468;13.776;2023-07-30T11:56:54;3.25;;;1.92;;
22166;SDS011;11249;52.468;13.776;2023-07-30T11:59:22;4.00;;;1.90;;
22166;SDS011;11249;52.468;13.776;2023-07-30T12:01:49;3.90;;;1.90;;
22166;SDS011;11249;52.468;13.776;2023-07-30T12:04:16;4.88;;;2.25;;
22166;SDS011;11249;52.468;13.776;2023-07-30T12:06:46;4.47;;;2.55;;
22166;SDS011;11249;52.468;13.776;2023-07-30T12:09:18;2.60;;;1.90;;
22166;SDS011;11249;52.468;13.776;2023-07-30T12:11:58;6.95;;;2.30;;
22166;SDS011;11249;52.468;13.776;2023-07-30T12:14:27;3.65;;;1.92;;
22166;SDS011;11249;52.468;13.776;2023-07-30T12:16:59;4.13;;;1.60;;
22166;SDS011;11249;52.468;13.776;2023-07-30T12:19:30;4.20;;;2.30;;
22166;SDS011;11249;52.468;13.776;2023-07-30T12:21:57;2.30;;;1.75;;
22166;SDS011;11249;52.468;13.776;2023-07-30T12:24:24;6.03;;;2.00;;
22166;SDS011;11249;52.468;13.776;2023-07-30T12:26:51;3.17;;;1.83;;
22166;SDS011;11249;52.468;13.776;2023-07-30T12:29:21;4.35;;;2.22;;
22166;SDS011;11249;52.468;13.776;2023-07-30T12:31:47;5.18;;;2.05;;
22166;SDS011;11249;52.468;13.776;2023-07-30T12:34:14;4.18;;;1.80;;
22166;SDS011;11249;52.468;13.776;2023-07-30T12:36:41;3.17;;;2.08;;
22166;SDS011;11249;52.468;13.776;2023-07-30T12:39:08;5.05;;;1.80;;
22166;SDS011;11249;52.468;13.776;2023-07-30T12:41:34;6.03;;;2.20;;
22166;SDS011;11249;52.468;13.776;2023-07-30T12:44:02;5.03;;;1.95;;
22166;SDS011;11249;52.468;13.776;2023-07-30T12:46:30;6.85;;;2.28;;
22166;SDS011;11249;52.468;13.776;2023-07-30T12:48:58;3.20;;;1.92;;
22166;SDS011;11249;52.468;13.776;2023-07-30T12:51:30;4.53;;;1.75;;
22166;SDS011;11249;52.468;13.776;2023-07-30T12:53:57;4.25;;;1.80;;
22166;SDS011;11249;52.468;13.776;2023-07-30T12:56:24;4.47;;;2.28;;
22166;SDS011;11249;52.468;13.776;2023-07-30T12:58:50;10.43;;;2.47;;
22166;SDS011;11249;52.468;13.776;2023-07-30T13:01:17;6.18;;;2.67;;
22166;SDS011;11249;52.468;13.776;2023-07-30T13:03:44;6.65;;;2.03;;
22166;SDS011;11249;52.468;13.776;2023-07-30T13:06:13;4.13;;;2.03;;
22166;SDS011;11249;52.468;13.776;2023-07-30T13:08:39;3.95;;;2.00;;
22166;SDS011;11249;52.468;13.776;2023-07-30T13:11:09;5.63;;;2.25;;
22166;SDS011;11249;52.468;13.776;2023-07-30T13:13:36;5.78;;;2.55;;
22166;SDS011;11249;52.468;13.776;2023-07-30T13:16:04;5.65;;;2.38;;
22166;SDS011;11249;52.468;13.776;2023-07-30T13:18:30;5.15;;;2.08;;
22166;SDS011;11249;52.468;13.776;2023-07-30T13:20:57;5.93;;;2.47;;
22166;SDS011;11249;52.468;13.776;2023-07-30T13:23:24;5.57;;;1.95;;
22166;SDS011;11249;52.468;13.776;2023-07-30T13:25:51;5.25;;;1.77;;
22166;SDS011;11249;52.468;13.776;2023-07-30T13:28:18;4.32;;;2.10;;
22166;SDS011;11249;52.468;13.776;2023-07-30T13:30:45;2.72;;;1.60;;
22166;SDS011;11249;52.468;13.776;2023-07-30T13:33:12;4.25;;;1.90;;
22166;SDS011;11249;52.468;13.776;2023-07-30T13:35:38;5.07;;;2.10;;
22166;SDS011;11249;52.468;13.776;2023-07-30T13:38:05;4.15;;;2.22;;
22166;SDS011;11249;52.468;13.776;2023-07-30T13:40:32;5.38;;;2.28;;
22166;SDS011;11249;52.468;13.776;2023-07-30T13:42:59;2.58;;;1.95;;
22166;SDS011;11249;52.468;13.776;2023-07-30T13:45:25;3.65;;;2.25;;
22166;SDS011;11249;52.468;13.776;2023-07-30T13:47:52;5.93;;;2.10;;
22166;SDS011;11249;52.468;13.776;2023-07-30T13:50:19;5.90;;;2.53;;
22166;SDS011;11249;52.468;13.776;2023-07-30T13:52:45;4.00;;;2.28;;
22166;SDS011;11249;52.468;13.776;2023-07-30T13:55:12;4.72;;;2.22;;
22166;SDS011;11249;52.468;13.776;2023-07-30T13:57:39;4.57;;;2.33;;
22166;SDS011;11249;52.468;13.776;2023-07-30T14:00:07;3.47;;;2.30;;
22166;SDS011;11249;52.468;13.776;2023-07-30T14:02:34;4.63;;;2.28;;
22166;SDS011;11249;52.468;13.776;2023-07-30T14:05:00;3.80;;;1.92;;
22166;SDS011;11249;52.468;13.776;2023-07-30T14:07:27;3.88;;;2.55;;
22166;SDS011;11249;52.468;13.776;2023-07-30T14:09:54;4.85;;;2.30;;
22166;SDS011;11249;52.468;13.776;2023-07-30T14:12:21;4.82;;;2.25;;
22166;SDS011;11249;52.468;13.776;2023-07-30T14:14:47;2.90;;;2.20;;
22166;SDS011;11249;52.468;13.776;2023-07-30T14:17:14;4.22;;;2.40;;
22166;SDS011;11249;52.468;13.776;2023-07-30T14:19:42;4.90;;;3.13;;
22166;SDS011;11249;52.468;13.776;2023-07-30T14:22:08;4.97;;;2.53;;
22166;SDS011;11249;52.468;13.776;2023-07-30T14:24:35;5.68;;;2.70;;
22166;SDS011;11249;52.468;13.776;2023-07-30T14:27:04;3.78;;;2.70;;
22166;SDS011;11249;52.468;13.776;2023-07-30T14:29:31;5.13;;;2.55;;
22166;SDS011;11249;52.468;13.776;2023-07-30T14:31:57;4.95;;;2.67;;
22166;SDS011;11249;52.468;13.776;2023-07-30T14:34:24;4.35;;;1.98;;
22166;SDS011;11249;52.468;13.776;2023-07-30T14:36:51;4.43;;;2.55;;
22166;SDS011;11249;52.468;13.776;2023-07-30T14:39:18;4.10;;;2.22;;